createdAt,value
2022-11-20T00:01:48.752Z,945.01
2022-11-20T00:04:15.117Z,945.04
2022-11-20T00:06:41.479Z,944.74
2022-11-20T00:09:07.814Z,944.56
2022-11-20T00:11:34.175Z,944.82
2022-11-20T00:14:00.516Z,944.82
2022-11-20T00:16:26.842Z,944.77
2022-11-20T00:18:53.226Z,944.85
2022-11-20T00:21:19.552Z,944.86
2022-11-20T00:23:45.937Z,944.87
2022-11-20T00:26:12.343Z,944.85
2022-11-20T00:28:38.675Z,944.61
2022-11-20T00:31:05.094Z,944.69
2022-11-20T00:33:31.435Z,944.93
2022-11-20T00:35:57.799Z,944.88
2022-11-20T00:38:24.174Z,944.91
2022-11-20T00:40:54.693Z,944.74
2022-11-20T00:43:16.890Z,944.64
2022-11-20T00:45:43.230Z,944.70
2022-11-20T00:48:09.612Z,944.65
2022-11-20T00:50:35.963Z,944.79
2022-11-20T00:53:02.298Z,944.86
2022-11-20T00:55:28.695Z,944.65
2022-11-20T00:57:55.058Z,945.01
2022-11-20T01:00:21.374Z,944.83
2022-11-20T01:02:47.719Z,944.64
2022-11-20T01:05:14.113Z,944.84
2022-11-20T01:07:40.582Z,944.66
2022-11-20T01:10:06.843Z,944.77
2022-11-20T01:12:33.187Z,944.81
2022-11-20T01:14:59.507Z,944.64
2022-11-20T01:17:25.916Z,944.70
2022-11-20T01:19:52.267Z,944.54
2022-11-20T01:22:18.664Z,944.54
2022-11-20T01:24:45.015Z,944.71
2022-11-20T01:27:11.419Z,944.35
2022-11-20T01:29:37.767Z,944.47
2022-11-20T01:32:04.136Z,944.39
2022-11-20T01:34:30.465Z,944.34
2022-11-20T01:36:56.809Z,944.43
2022-11-20T01:39:23.502Z,943.98
2022-11-20T01:41:49.543Z,944.32
2022-11-20T01:44:15.941Z,944.24
2022-11-20T01:46:42.283Z,943.87
2022-11-20T01:49:08.806Z,944.21
2022-11-20T01:51:35.191Z,944.38
2022-11-20T01:54:01.500Z,944.46
2022-11-20T01:56:27.893Z,944.41
2022-11-20T01:58:54.193Z,944.47
2022-11-20T02:01:20.632Z,944.36
2022-11-20T02:03:46.980Z,944.30
2022-11-20T02:06:13.347Z,944.24
2022-11-20T02:08:39.669Z,944.37
2022-11-20T02:11:06.062Z,944.28
2022-11-20T02:13:32.414Z,944.17
2022-11-20T02:15:58.745Z,944.19
2022-11-20T02:18:25.064Z,944.34
2022-11-20T02:20:51.463Z,944.37
2022-11-20T02:23:17.782Z,944.33
2022-11-20T02:25:44.154Z,944.31
2022-11-20T02:28:10.520Z,944.64
2022-11-20T02:30:36.904Z,944.38
2022-11-20T02:33:03.259Z,944.26
2022-11-20T02:35:29.602Z,944.44
2022-11-20T02:37:55.962Z,944.31
2022-11-20T02:40:22.383Z,944.47
2022-11-20T02:42:48.724Z,944.55
2022-11-20T02:45:15.107Z,944.65
2022-11-20T02:47:41.466Z,944.60
2022-11-20T02:50:07.857Z,944.71
2022-11-20T02:52:34.185Z,944.73
2022-11-20T02:55:00.615Z,944.82
2022-11-20T02:57:26.982Z,945.03
2022-11-20T02:59:53.354Z,944.87
2022-11-20T03:02:19.739Z,944.81
2022-11-20T03:04:46.111Z,944.94
2022-11-20T03:07:12.587Z,945.07
2022-11-20T03:09:38.905Z,945.13
2022-11-20T03:12:05.236Z,945.48
2022-11-20T03:14:31.585Z,945.10
2022-11-20T03:16:57.922Z,945.24
2022-11-20T03:19:24.319Z,945.04
2022-11-20T03:21:50.635Z,945.07
2022-11-20T03:24:17.002Z,945.12
2022-11-20T03:26:43.376Z,945.19
2022-11-20T03:29:09.732Z,945.17
2022-11-20T03:31:36.045Z,945.30
2022-11-20T03:34:02.393Z,945.25
2022-11-20T03:36:28.760Z,945.21
2022-11-20T03:38:55.100Z,945.21
2022-11-20T03:41:21.475Z,945.32
2022-11-20T03:43:47.839Z,945.35
2022-11-20T03:46:14.198Z,945.55
2022-11-20T03:48:40.554Z,945.38
2022-11-20T03:51:06.920Z,945.30
2022-11-20T03:53:33.294Z,945.25
2022-11-20T03:55:59.612Z,945.26
2022-11-20T03:58:25.956Z,945.13
2022-11-20T04:00:52.287Z,945.15
2022-11-20T04:03:18.636Z,945.09
2022-11-20T04:05:44.966Z,945.16
2022-11-20T04:08:11.353Z,945.23
2022-11-20T04:10:37.675Z,945.22
2022-11-20T04:13:04.084Z,945.19
2022-11-20T04:15:34.302Z,945.26
2022-11-20T04:17:56.796Z,945.30
2022-11-20T04:20:23.227Z,945.21
2022-11-20T04:22:49.602Z,945.24
2022-11-20T04:25:15.918Z,945.32
2022-11-20T04:27:42.331Z,945.15
2022-11-20T04:30:08.698Z,945.30
2022-11-20T04:32:35.071Z,945.27
2022-11-20T04:35:01.426Z,945.21
2022-11-20T04:37:27.812Z,945.40
2022-11-20T04:39:54.131Z,945.32
2022-11-20T04:42:20.476Z,945.36
2022-11-20T04:44:46.799Z,945.45
2022-11-20T04:47:13.186Z,945.40
2022-11-20T04:49:39.590Z,945.27
2022-11-20T04:52:05.937Z,945.09
2022-11-20T04:54:32.312Z,945.18
2022-11-20T04:56:58.628Z,945.19
2022-11-20T04:59:25.018Z,945.13
2022-11-20T05:01:51.481Z,944.90
2022-11-20T05:04:17.778Z,945.03
2022-11-20T05:06:44.104Z,944.89
2022-11-20T05:09:10.487Z,945.04
2022-11-20T05:11:36.803Z,944.90
2022-11-20T05:14:03.147Z,944.98
2022-11-20T05:16:29.509Z,945.02
2022-11-20T05:18:55.891Z,944.88
2022-11-20T05:21:22.200Z,944.81
2022-11-20T05:23:48.579Z,944.91
2022-11-20T05:26:14.903Z,944.95
2022-11-20T05:28:41.252Z,944.92
2022-11-20T05:31:07.614Z,945.05
2022-11-20T05:33:33.972Z,944.88
2022-11-20T05:36:00.401Z,944.87
2022-11-20T05:38:26.776Z,945.02
2022-11-20T05:40:53.093Z,945.01
2022-11-20T05:43:19.569Z,945.14
2022-11-20T05:45:45.894Z,945.06
2022-11-20T05:48:12.246Z,945.10
2022-11-20T05:50:38.577Z,945.04
2022-11-20T05:53:04.967Z,945.15
2022-11-20T05:55:31.316Z,945.31
2022-11-20T05:57:57.666Z,945.12
2022-11-20T06:00:24.054Z,945.13
2022-11-20T06:02:50.534Z,945.03
2022-11-20T06:05:16.809Z,945.11
2022-11-20T06:07:43.284Z,945.25
2022-11-20T06:10:09.528Z,945.18
2022-11-20T06:12:35.921Z,945.15
2022-11-20T06:15:02.254Z,945.10
2022-11-20T06:17:28.664Z,945.09
2022-11-20T06:19:55.016Z,945.11
2022-11-20T06:22:21.406Z,945.18
2022-11-20T06:24:47.764Z,945.06
2022-11-20T06:27:14.139Z,945.19
2022-11-20T06:29:40.454Z,945.24
2022-11-20T06:32:06.841Z,945.16
2022-11-20T06:34:33.218Z,945.21
2022-11-20T06:36:59.588Z,945.18
2022-11-20T06:39:25.908Z,945.19
2022-11-20T06:41:55.812Z,945.20
2022-11-20T06:44:18.622Z,945.21
2022-11-20T06:46:45.025Z,945.12
2022-11-20T06:49:11.353Z,945.29
2022-11-20T06:51:37.706Z,945.05
2022-11-20T06:54:04.055Z,945.16
2022-11-20T06:56:30.407Z,945.17
2022-11-20T06:58:56.730Z,945.24
2022-11-20T07:01:23.107Z,945.27
2022-11-20T07:03:54.026Z,945.33
2022-11-20T07:06:15.815Z,945.34
2022-11-20T07:08:42.176Z,945.27
2022-11-20T07:11:08.597Z,945.32
2022-11-20T07:13:34.978Z,945.27
2022-11-20T07:16:01.367Z,945.35
2022-11-20T07:18:27.771Z,945.54
2022-11-20T07:20:54.132Z,945.58
2022-11-20T07:23:20.484Z,945.51
2022-11-20T07:25:46.863Z,945.50
2022-11-20T07:28:13.187Z,945.45
2022-11-20T07:30:39.553Z,945.42
2022-11-20T07:33:05.899Z,945.48
2022-11-20T07:35:32.281Z,945.39
2022-11-20T07:37:58.613Z,945.43
2022-11-20T07:40:24.991Z,945.55
2022-11-20T07:42:51.317Z,945.62
2022-11-20T07:45:17.699Z,945.50
2022-11-20T07:47:44.091Z,945.55
2022-11-20T07:50:10.422Z,945.58
2022-11-20T07:52:36.747Z,945.51
2022-11-20T07:55:03.166Z,945.49
2022-11-20T07:57:29.460Z,945.58
2022-11-20T07:59:55.803Z,945.57
2022-11-20T08:02:22.139Z,945.52
2022-11-20T08:04:48.601Z,945.53
2022-11-20T08:07:15.041Z,945.44
2022-11-20T08:09:41.359Z,945.48
2022-11-20T08:12:07.720Z,945.47
2022-11-20T08:14:34.082Z,945.46
2022-11-20T08:17:00.422Z,945.37
2022-11-20T08:19:26.811Z,945.30
2022-11-20T08:21:53.176Z,945.37
2022-11-20T08:24:19.565Z,945.44
2022-11-20T08:26:45.893Z,945.27
2022-11-20T08:29:12.280Z,945.33
2022-11-20T08:31:38.667Z,945.32
2022-11-20T08:34:08.981Z,945.46
2022-11-20T08:36:31.320Z,945.51
2022-11-20T08:38:57.738Z,945.64
2022-11-20T08:41:24.052Z,945.66
2022-11-20T08:43:50.396Z,945.55
2022-11-20T08:46:16.751Z,945.48
2022-11-20T08:48:43.095Z,945.62
2022-11-20T08:51:09.416Z,945.73
2022-11-20T08:53:36.742Z,945.93
2022-11-20T08:56:03.067Z,945.84
2022-11-20T08:58:31.014Z,945.94
2022-11-20T09:00:55.803Z,945.93
2022-11-20T09:03:22.136Z,945.87
2022-11-20T09:05:48.425Z,945.93
2022-11-20T09:08:14.777Z,945.89
2022-11-20T09:10:41.098Z,945.96
2022-11-20T09:13:07.487Z,945.93
2022-11-20T09:15:33.906Z,945.95
2022-11-20T09:18:00.240Z,946.00
2022-11-20T09:20:26.558Z,945.94
2022-11-20T09:22:52.985Z,946.04
2022-11-20T09:25:19.351Z,945.94
2022-11-20T09:27:45.684Z,945.97
2022-11-20T09:30:12.082Z,946.10
2022-11-20T09:32:38.427Z,946.09
2022-11-20T09:35:04.805Z,946.00
2022-11-20T09:37:31.113Z,945.95
2022-11-20T09:39:57.432Z,945.89
2022-11-20T09:42:23.813Z,945.86
2022-11-20T09:44:50.316Z,945.79
2022-11-20T09:47:16.646Z,945.60
2022-11-20T09:49:42.971Z,945.64
2022-11-20T09:52:09.372Z,945.58
2022-11-20T09:54:35.723Z,945.63
2022-11-20T09:57:02.072Z,945.52
2022-11-20T09:59:28.443Z,945.50
2022-11-20T10:01:54.780Z,945.50
2022-11-20T10:04:21.279Z,945.51
2022-11-20T10:06:59.394Z,945.46
2022-11-20T10:09:14.012Z,945.43
2022-11-20T10:11:40.360Z,945.44
2022-11-20T10:14:06.725Z,945.46
2022-11-20T10:16:37.987Z,945.38
2022-11-20T10:18:59.447Z,945.34
2022-11-20T10:21:25.870Z,945.24
2022-11-20T10:23:52.224Z,945.12
2022-11-20T10:26:18.560Z,944.92
2022-11-20T10:28:52.789Z,945.13
2022-11-20T10:31:11.224Z,945.18
2022-11-20T10:33:50.403Z,945.25
2022-11-20T10:36:04.008Z,945.27
2022-11-20T10:38:30.354Z,945.26
2022-11-20T10:40:56.749Z,945.24
2022-11-20T10:43:23.088Z,945.26
2022-11-20T10:45:49.510Z,945.34
2022-11-20T10:48:15.826Z,945.30
2022-11-20T10:50:42.182Z,945.33
2022-11-20T10:53:08.595Z,945.35
2022-11-20T10:55:34.939Z,945.33
2022-11-20T10:58:01.313Z,945.13
2022-11-20T11:00:27.688Z,945.31
2022-11-20T11:02:54.060Z,945.42
2022-11-20T11:05:20.400Z,945.27
2022-11-20T11:07:46.723Z,945.61
2022-11-20T11:10:13.090Z,945.84
2022-11-20T11:12:39.411Z,945.83
2022-11-20T11:15:05.795Z,945.76
2022-11-20T11:17:32.164Z,945.67
2022-11-20T11:19:58.544Z,946.18
2022-11-20T11:22:24.893Z,945.94
2022-11-20T11:24:51.298Z,946.15
2022-11-20T11:27:18.037Z,945.99
2022-11-20T11:29:44.050Z,945.92
2022-11-20T11:32:10.416Z,945.78
2022-11-20T11:34:36.773Z,945.82
2022-11-20T11:37:03.095Z,945.93
2022-11-20T11:39:29.435Z,945.76
2022-11-20T11:41:55.758Z,945.72
2022-11-20T11:44:22.101Z,945.73
2022-11-20T11:46:48.437Z,945.72
2022-11-20T11:49:14.787Z,945.78
2022-11-20T11:51:41.122Z,945.77
2022-11-20T11:54:07.536Z,945.78
2022-11-20T11:56:33.847Z,945.82
2022-11-20T11:59:00.253Z,945.77
2022-11-20T12:01:26.567Z,945.74
2022-11-20T12:03:52.949Z,945.65
2022-11-20T12:06:19.309Z,945.59
2022-11-20T12:08:45.650Z,945.67
2022-11-20T12:11:12.041Z,945.70
2022-11-20T12:13:38.416Z,945.64
2022-11-20T12:16:04.778Z,945.66
2022-11-20T12:18:31.112Z,945.59
2022-11-20T12:20:57.473Z,945.60
2022-11-20T12:23:23.844Z,945.71
2022-11-20T12:25:50.223Z,945.73
2022-11-20T12:28:16.573Z,945.59
2022-11-20T12:30:42.936Z,945.63
2022-11-20T12:33:09.332Z,945.91
2022-11-20T12:35:35.666Z,945.87
2022-11-20T12:38:02.036Z,945.82
2022-11-20T12:40:28.362Z,945.54
2022-11-20T12:42:54.752Z,945.31
2022-11-20T12:45:21.110Z,945.08
2022-11-20T12:47:47.523Z,944.94
2022-11-20T12:50:13.838Z,944.92
2022-11-20T12:52:40.181Z,945.05
2022-11-20T12:55:06.547Z,945.14
2022-11-20T12:57:32.893Z,945.23
2022-11-20T12:59:59.262Z,945.20
2022-11-20T13:02:25.601Z,945.27
2022-11-20T13:04:51.928Z,945.28
2022-11-20T13:07:18.377Z,945.27
2022-11-20T13:09:44.647Z,945.18
2022-11-20T13:12:11.031Z,945.08
2022-11-20T13:14:37.399Z,945.02
2022-11-20T13:17:06.237Z,944.86
2022-11-20T13:19:30.140Z,944.46
2022-11-20T13:21:56.515Z,944.49
2022-11-20T13:24:22.995Z,944.92
2022-11-20T13:26:49.171Z,944.92
2022-11-20T13:29:15.491Z,945.13
2022-11-20T13:31:41.855Z,944.83
2022-11-20T13:34:08.181Z,944.98
2022-11-20T13:36:34.603Z,945.22
2022-11-20T13:39:00.929Z,945.34
2022-11-20T13:41:27.310Z,945.10
2022-11-20T13:43:53.631Z,945.21
2022-11-20T13:46:20.033Z,945.45
2022-11-20T13:48:46.344Z,945.08
2022-11-20T13:51:12.690Z,945.04
2022-11-20T13:53:39.053Z,945.24
2022-11-20T13:56:05.431Z,945.31
2022-11-20T13:58:31.805Z,945.05
2022-11-20T14:00:58.250Z,945.03
2022-11-20T14:03:44.206Z,945.40
2022-11-20T14:05:50.950Z,945.47
2022-11-20T14:08:17.323Z,945.37
2022-11-20T14:10:43.678Z,945.21
2022-11-20T14:13:10.006Z,945.41
2022-11-20T14:15:40.449Z,945.10
2022-11-20T14:18:02.804Z,945.19
2022-11-20T14:20:29.255Z,945.08
2022-11-20T14:22:55.584Z,945.05
2022-11-20T14:25:21.968Z,945.22
2022-11-20T14:27:48.285Z,945.09
2022-11-20T14:30:14.778Z,945.10
2022-11-20T14:32:41.125Z,945.16
2022-11-20T14:35:07.505Z,945.22
2022-11-20T14:37:33.890Z,945.38
2022-11-20T14:40:00.270Z,945.35
2022-11-20T14:42:26.592Z,945.28
2022-11-20T14:44:52.938Z,945.31
2022-11-20T14:47:19.267Z,945.30
2022-11-20T14:49:45.652Z,945.33
2022-11-20T14:52:12.013Z,945.29
2022-11-20T14:54:38.351Z,945.31
2022-11-20T14:57:04.739Z,945.27
2022-11-20T14:59:31.073Z,945.23
2022-11-20T15:01:57.481Z,945.18
2022-11-20T15:04:23.977Z,945.31
2022-11-20T15:06:50.155Z,945.37
2022-11-20T15:09:16.497Z,945.44
2022-11-20T15:11:42.858Z,945.46
2022-11-20T15:14:09.242Z,945.40
2022-11-20T15:16:35.558Z,945.53
2022-11-20T15:19:01.942Z,945.45
2022-11-20T15:21:28.285Z,945.58
2022-11-20T15:23:54.601Z,945.70
2022-11-20T15:26:21.023Z,945.82
2022-11-20T15:28:47.389Z,945.73
2022-11-20T15:31:13.770Z,945.76
2022-11-20T15:33:40.117Z,945.93
2022-11-20T15:36:06.506Z,946.05
2022-11-20T15:38:32.864Z,946.12
2022-11-20T15:40:59.309Z,946.05
2022-11-20T15:43:25.670Z,946.34
2022-11-20T15:45:52.013Z,946.63
2022-11-20T15:48:18.381Z,946.95
2022-11-20T15:50:44.770Z,947.04
2022-11-20T15:53:11.097Z,947.01
2022-11-20T15:55:37.449Z,946.81
2022-11-20T15:58:03.864Z,946.80
2022-11-20T16:00:30.203Z,946.90
2022-11-20T16:02:56.576Z,947.02
2022-11-20T16:05:22.974Z,947.07
2022-11-20T16:07:49.392Z,946.91
2022-11-20T16:10:15.735Z,946.98
2022-11-20T16:12:42.103Z,946.89
2022-11-20T16:15:13.465Z,946.63
2022-11-20T16:17:34.812Z,946.74
2022-11-20T16:20:01.199Z,946.72
2022-11-20T16:22:27.558Z,946.65
2022-11-20T16:24:53.940Z,946.60
2022-11-20T16:27:20.265Z,946.57
2022-11-20T16:29:46.706Z,946.55
2022-11-20T16:32:13.080Z,946.61
2022-11-20T16:34:39.398Z,946.64
2022-11-20T16:37:05.806Z,946.65
2022-11-20T16:39:32.185Z,946.48
2022-11-20T16:41:58.506Z,946.43
2022-11-20T16:44:25.353Z,946.38
2022-11-20T16:46:51.398Z,946.42
2022-11-20T16:49:17.579Z,946.50
2022-11-20T16:51:43.952Z,946.28
2022-11-20T16:54:10.344Z,946.24
2022-11-20T16:56:36.702Z,946.29
2022-11-20T16:59:03.073Z,946.28
2022-11-20T17:01:29.534Z,946.36
2022-11-20T17:03:55.835Z,946.39
2022-11-20T17:06:22.219Z,946.42
2022-11-20T17:08:48.625Z,946.28
2022-11-20T17:11:15.026Z,946.16
2022-11-20T17:13:41.416Z,946.16
2022-11-20T17:16:07.726Z,946.16
2022-11-20T17:18:34.124Z,946.15
2022-11-20T17:21:00.432Z,946.10
2022-11-20T17:23:26.851Z,946.08
2022-11-20T17:25:53.212Z,946.10
2022-11-20T17:28:19.562Z,946.18
2022-11-20T17:30:45.924Z,946.01
2022-11-20T17:33:12.317Z,945.82
2022-11-20T17:35:38.739Z,945.81
2022-11-20T17:38:05.088Z,945.85
2022-11-20T17:40:31.472Z,945.96
2022-11-20T17:42:57.811Z,945.82
2022-11-20T17:45:24.179Z,945.73
2022-11-20T17:47:50.514Z,945.60
2022-11-20T17:50:16.874Z,945.70
2022-11-20T17:52:43.261Z,945.73
2022-11-20T17:55:09.635Z,945.68
2022-11-20T17:57:36.008Z,945.46
2022-11-20T18:00:02.325Z,945.33
2022-11-20T18:02:29.021Z,945.16
2022-11-20T18:04:55.377Z,945.01
2022-11-20T18:07:21.796Z,944.98
2022-11-20T18:09:48.129Z,944.92
2022-11-20T18:12:14.471Z,944.97
2022-11-20T18:14:40.836Z,944.98
2022-11-20T18:17:07.243Z,945.08
2022-11-20T18:19:34.805Z,945.03
2022-11-20T18:21:59.960Z,945.12
2022-11-20T18:24:26.473Z,944.99
2022-11-20T18:26:52.743Z,944.92
2022-11-20T18:29:19.054Z,944.97
2022-11-20T18:31:45.400Z,944.97
2022-11-20T18:34:11.764Z,944.96
2022-11-20T18:36:38.098Z,944.96
2022-11-20T18:39:04.462Z,944.86
2022-11-20T18:41:30.856Z,944.85
2022-11-20T18:43:57.227Z,944.83
2022-11-20T18:46:23.579Z,944.71
2022-11-20T18:48:49.930Z,944.73
2022-11-20T18:51:16.343Z,944.74
2022-11-20T18:53:47.128Z,944.69
2022-11-20T18:56:09.001Z,944.77
2022-11-20T18:58:35.360Z,944.71
2022-11-20T19:01:01.732Z,944.73
2022-11-20T19:03:28.012Z,944.79
2022-11-20T19:05:54.397Z,944.84
2022-11-20T19:08:20.709Z,944.86
2022-11-20T19:10:47.089Z,944.85
2022-11-20T19:13:13.414Z,944.76
2022-11-20T19:15:39.793Z,944.78
2022-11-20T19:18:06.163Z,944.77
2022-11-20T19:20:32.505Z,944.75
2022-11-20T19:22:58.871Z,944.83
2022-11-20T19:25:25.250Z,944.58
2022-11-20T19:27:51.587Z,944.48
2022-11-20T19:30:17.918Z,944.45
2022-11-20T19:32:44.246Z,944.45
2022-11-20T19:35:10.627Z,944.50
2022-11-20T19:37:36.964Z,944.49
2022-11-20T19:40:03.387Z,944.55
2022-11-20T19:42:29.695Z,944.41
2022-11-20T19:44:56.035Z,944.34
2022-11-20T19:47:22.952Z,944.27
2022-11-20T19:49:48.746Z,944.04
2022-11-20T19:52:15.138Z,944.00
2022-11-20T19:54:41.476Z,943.93
2022-11-20T19:57:07.791Z,943.94
2022-11-20T19:59:34.138Z,944.10
2022-11-20T20:02:00.532Z,944.17
2022-11-20T20:04:26.833Z,944.11
2022-11-20T20:06:53.146Z,943.88
2022-11-20T20:09:19.522Z,943.73
2022-11-20T20:11:45.847Z,943.63
2022-11-20T20:14:12.183Z,943.68
2022-11-20T20:16:38.542Z,943.69
2022-11-20T20:19:04.926Z,943.71
2022-11-20T20:21:31.270Z,943.55
2022-11-20T20:23:57.620Z,943.84
2022-11-20T20:26:23.974Z,943.85
2022-11-20T20:28:50.383Z,943.60
2022-11-20T20:31:16.700Z,943.57
2022-11-20T20:33:43.081Z,943.82
2022-11-20T20:36:09.420Z,943.93
2022-11-20T20:38:35.765Z,943.58
2022-11-20T20:41:02.079Z,943.61
2022-11-20T20:43:28.462Z,943.62
2022-11-20T20:45:54.781Z,943.47
2022-11-20T20:48:21.161Z,943.52
2022-11-20T20:50:47.542Z,943.82
2022-11-20T20:53:13.878Z,943.94
2022-11-20T20:55:40.236Z,944.09
2022-11-20T20:58:06.651Z,943.95
2022-11-20T21:00:32.963Z,943.75
2022-11-20T21:02:59.307Z,943.59
2022-11-20T21:05:25.673Z,943.44
2022-11-20T21:07:52.020Z,943.52
2022-11-20T21:10:23.500Z,943.56
2022-11-20T21:12:44.775Z,943.49
2022-11-20T21:15:11.083Z,943.43
2022-11-20T21:17:37.468Z,943.45
2022-11-20T21:20:03.781Z,943.25
2022-11-20T21:22:33.916Z,943.07
2022-11-20T21:24:56.503Z,943.14
2022-11-20T21:27:22.871Z,943.11
2022-11-20T21:29:49.225Z,942.91
2022-11-20T21:32:15.575Z,943.07
2022-11-20T21:34:41.937Z,943.16
2022-11-20T21:37:08.274Z,943.19
2022-11-20T21:39:34.634Z,943.12
2022-11-20T21:42:00.969Z,942.93
2022-11-20T21:44:31.538Z,942.97
2022-11-20T21:46:53.707Z,942.80
2022-11-20T21:49:20.068Z,942.70
2022-11-20T21:51:46.407Z,942.59
2022-11-20T21:54:12.728Z,942.56
2022-11-20T21:56:39.141Z,942.34
2022-11-20T21:59:05.456Z,942.28
2022-11-20T22:01:32.096Z,942.29
2022-11-20T22:03:58.187Z,942.08
2022-11-20T22:06:24.565Z,941.77
2022-11-20T22:08:50.918Z,941.76
2022-11-20T22:11:17.261Z,941.79
2022-11-20T22:13:43.579Z,941.86
2022-11-20T22:16:09.924Z,941.71
2022-11-20T22:18:36.291Z,941.59
2022-11-20T22:21:02.673Z,941.41
2022-11-20T22:23:28.991Z,941.38
2022-11-20T22:25:55.373Z,941.35
2022-11-20T22:28:21.767Z,941.20
2022-11-20T22:30:48.139Z,941.09
2022-11-20T22:33:14.518Z,940.99
2022-11-20T22:35:40.901Z,941.09
2022-11-20T22:38:07.255Z,941.14
2022-11-20T22:40:33.648Z,941.08
2022-11-20T22:42:59.963Z,940.97
2022-11-20T22:45:26.339Z,940.82
2022-11-20T22:47:52.656Z,940.77
2022-11-20T22:50:18.995Z,940.71
2022-11-20T22:52:45.356Z,940.53
2022-11-20T22:55:16.096Z,940.37
2022-11-20T22:57:38.027Z,940.22
2022-11-20T23:00:04.363Z,940.18
2022-11-20T23:02:30.682Z,940.04
2022-11-20T23:04:57.095Z,939.92
2022-11-20T23:07:23.494Z,939.98
2022-11-20T23:09:49.757Z,940.01
2022-11-20T23:12:16.115Z,939.84
2022-11-20T23:14:42.450Z,939.68
2022-11-20T23:17:08.809Z,939.71
2022-11-20T23:19:35.194Z,939.88
2022-11-20T23:22:01.510Z,939.82
2022-11-20T23:24:28.115Z,939.71
2022-11-20T23:26:54.204Z,939.50
2022-11-20T23:29:20.629Z,939.48
2022-11-20T23:31:46.979Z,939.41
2022-11-20T23:34:13.313Z,939.30
2022-11-20T23:36:39.632Z,939.25
2022-11-20T23:39:05.975Z,938.88
2022-11-20T23:41:32.334Z,938.76
2022-11-20T23:43:58.744Z,939.07
2022-11-20T23:46:25.054Z,939.16
2022-11-20T23:48:51.399Z,939.17
2022-11-20T23:51:17.738Z,939.28
2022-11-20T23:53:44.087Z,939.18
